Pagrindinis puslapis
METAR-TAF:

METAR-TAF

Oro uostai :

Larnaka, Kipras

platuma: 34-53N, ilguma: 033-38E, Aukštis: 2 m

Dabartinis oras

Ataskaita buvo paskelbta 38 minutes, ne 04:30 UTC
Vėjas 2 kt nuo kintamojo kryptimis
Temperatūra 23°C
Drėgmė 83%
Slėgis 1014 hPa
Matomumas 10 km arba daugiau
nėra debesų žemiau 1500 m ir nėra kamuolinių lietaus debesų

METAR: LCLK 180430Z VRB02KT CAVOK 23/20 Q1014 NOSIG

Laikas: 08:08 (05:08 UTC)

Prognozė

Ataskaita buvo paskelbta 5 valandos ir 38 minutes, ne 23:30 UTC
Prognozė galioja nuo 18 metu 00 UTC su 18 metu 24 UTC
Vėjas 6 kt iš Šiaurės Vakarų
Matomumas 10 km arba daugiau
Mažai debesys ne aukštis 2500 ft
Tapsmas
nuo 18 metu 08 UTC su 18 metu 12 UTC
Vėjas 11 kt iš Pietų
Tapsmas
nuo 18 metu 16 UTC su 18 metu 20 UTC
Vėjas 6 kt iš Šiaurės Vakarų

TAF: LCLK 172330Z 1800/1824 31006KT 9999 FEW025 BECMG 1808/1812 19011KT BECMG 1816/1820 31006KT

Orai ataskaitas ir orų prognozės (METAR, TAF).

turimą stotys yra geltonos ir raudonos taškus žemėlapyje.

Perkelti pele per norėdami pamatyti stoties vardą.

Tada spustelėkite, norėdami matyti oro stebėjimo ir prognozės.

Norėdami pakeisti žemėlapį: spustelėkite ant žalios mygtukų su juodo kryžiaus žemyn,; žalią mygtuką su brūkšneliu, jei norite nutolinti; arba žalių rodyklių gretimoms žemėlapius.


METAR-TAF: